Time;durP1;ratioP1;P1;durP2;ratioP2;P2;SDS_P1;SDS_P2;PMS_P1;PMS_P2;Temp;Humidity;BMP_temperature;BMP_pressure;BME280_temperature;BME280_humidity;BME280_pressure;Samples;Min_cycle;Max_cycle;Signal;HPM_P1;HPM_P2
2022/11/21 00:00:48;;;;;;;56.53;31.52;;;6.50;99.90;;;;;;5117721;28;20024;-62
2022/11/21 00:03:14;;;;;;;64.93;34.45;;;6.40;99.90;;;;;;5117755;28;20023;-63
2022/11/21 00:05:42;;;;;;;64.65;34.10;;;6.40;99.90;;;;;;5117412;28;20354;-63
2022/11/21 00:08:13;;;;;;;56.08;31.00;;;6.40;99.90;;;;;;5115522;28;20031;-62
2022/11/21 00:10:39;;;;;;;;;;;6.50;99.90;;;;;;5117972;27;20031;-62
2022/11/21 00:13:07;;;;;;;55.40;31.00;;;6.30;99.90;;;;;;5117583;28;19908;-62
2022/11/21 00:15:34;;;;;;;58.72;32.35;;;6.40;99.90;;;;;;5117310;28;20040;-62
2022/11/21 00:18:04;;;;;;;51.47;28.88;;;6.30;99.90;;;;;;5116054;28;20031;-62
2022/11/21 00:20:29;;;;;;;54.33;31.48;;;6.40;99.90;;;;;;5117377;28;20065;-62
2022/11/21 00:22:55;;;;;;;53.08;30.45;;;6.30;99.90;;;;;;5116185;28;20049;-62
2022/11/21 00:25:21;;;;;;;55.25;32.03;;;6.30;99.90;;;;;;5117288;28;20059;-62
2022/11/21 00:27:47;;;;;;;53.00;30.73;;;6.30;99.90;;;;;;5115855;28;20066;-62
2022/11/21 00:30:14;;;;;;;53.75;30.30;;;6.30;99.90;;;;;;5117304;28;20028;-62
2022/11/21 00:32:40;;;;;;;53.05;30.23;;;6.30;99.90;;;;;;5117094;28;20019;-62
2022/11/21 00:35:06;;;;;;;53.95;30.58;;;6.20;99.90;;;;;;5117210;28;20026;-63
2022/11/21 00:37:33;;;;;;;48.38;27.70;;;6.20;99.90;;;;;;5117009;28;20382;-62
2022/11/21 00:39:59;;;;;;;52.85;28.48;;;6.30;99.90;;;;;;5117072;28;20116;-62
2022/11/21 00:42:25;;;;;;;50.45;27.23;;;6.20;99.90;;;;;;5116900;28;20032;-63
2022/11/21 00:44:51;;;;;;;49.92;26.67;;;6.30;99.90;;;;;;5116776;28;20400;-62
2022/11/21 00:47:17;;;;;;;45.63;27.15;;;6.30;99.90;;;;;;5116658;27;20043;-62
2022/11/21 00:49:43;;;;;;;52.45;28.95;;;6.30;99.90;;;;;;5116666;28;20016;-62
2022/11/21 00:52:08;;;;;;;46.92;27.40;;;6.20;99.90;;;;;;5116695;28;20027;-62
2022/11/21 00:54:34;;;;;;;44.95;27.00;;;6.20;99.90;;;;;;5116447;28;20019;-62
2022/11/21 00:57:00;;;;;;;46.67;27.08;;;6.20;99.90;;;;;;5116605;28;20031;-62
2022/11/21 00:59:26;;;;;;;53.03;28.90;;;6.20;99.90;;;;;;5116599;28;20084;-62
2022/11/21 01:01:52;;;;;;;45.25;26.27;;;6.20;99.90;;;;;;5116481;28;20026;-62
2022/11/21 01:04:18;;;;;;;45.33;26.52;;;6.20;99.90;;;;;;5116467;28;20023;-62
2022/11/21 01:06:44;;;;;;;46.58;26.65;;;6.10;99.90;;;;;;5116221;28;20058;-62
2022/11/21 01:09:10;;;;;;;46.28;26.10;;;6.20;99.90;;;;;;5115066;28;20042;-62
2022/11/21 01:11:36;;;;;;;49.80;27.15;;;6.20;99.90;;;;;;5116316;28;20085;-62
2022/11/21 01:14:02;;;;;;;50.13;27.77;;;6.20;99.90;;;;;;5116268;28;20048;-62
2022/11/21 01:16:28;;;;;;;45.92;26.35;;;6.10;99.90;;;;;;5116062;28;20067;-63
2022/11/21 01:18:55;;;;;;;49.58;27.33;;;6.10;99.90;;;;;;5116008;28;20028;-63
2022/11/21 01:21:24;;;;;;;45.13;25.88;;;6.10;99.90;;;;;;5116028;28;20034;-62
2022/11/21 01:23:50;;;;;;;44.15;26.23;;;6.10;99.90;;;;;;5116037;28;20040;-62
2022/11/21 01:26:19;;;;;;;46.80;25.10;;;6.10;99.90;;;;;;5115924;28;20523;-62
2022/11/21 01:28:45;;;;;;;52.35;27.42;;;6.20;99.90;;;;;;5115898;28;20050;-62
2022/11/21 01:31:12;;;;;;;46.72;27.10;;;6.20;99.90;;;;;;5115817;28;20030;-62
2022/11/21 01:33:39;;;;;;;48.10;26.55;;;6.10;99.90;;;;;;5115823;28;20027;-62
2022/11/21 01:36:14;;;;;;;49.92;27.35;;;6.10;99.90;;;;;;5115786;28;20024;-62
2022/11/21 01:38:43;;;;;;;51.00;25.95;;;6.10;99.90;;;;;;5114443;28;20031;-62
2022/11/21 01:41:11;;;;;;;52.92;28.55;;;6.00;99.90;;;;;;5114430;28;20027;-62
2022/11/21 01:43:38;;;;;;;49.08;26.67;;;6.10;99.90;;;;;;5115672;28;20053;-62
2022/11/21 01:46:06;;;;;;;48.45;27.38;;;6.10;99.90;;;;;;5115585;28;20377;-62
2022/11/21 01:48:50;;;;;;;50.92;27.85;;;6.00;99.90;;;;;;5115413;28;20024;-63
2022/11/21 01:51:19;;;;;;;51.53;28.60;;;6.00;99.90;;;;;;5115559;28;20158;-62
2022/11/21 01:53:55;;;;;;;54.28;29.38;;;6.00;99.90;;;;;;5115508;28;20099;-62
2022/11/21 01:56:23;;;;;;;50.60;26.58;;;6.00;99.90;;;;;;5115521;28;20031;-62
2022/11/21 01:58:51;;;;;;;48.17;27.20;;;6.00;99.90;;;;;;5115356;28;20032;-62
2022/11/21 02:01:17;;;;;;;52.03;28.10;;;6.00;99.90;;;;;;5115400;28;20027;-63
2022/11/21 02:03:45;;;;;;;55.90;29.60;;;6.10;99.90;;;;;;5115403;28;20496;-62
2022/11/21 02:06:12;;;;;;;50.15;26.98;;;6.10;99.90;;;;;;5115243;28;20408;-62
2022/11/21 02:08:39;;;;;;;47.75;27.45;;;6.10;99.90;;;;;;5115302;28;20020;-62
2022/11/21 02:11:22;;;;;;;45.47;25.60;;;6.00;99.90;;;;;;5115019;28;20027;-62
2022/11/21 02:13:48;;;;;;;54.33;28.17;;;6.00;99.90;;;;;;5115181;28;20054;-62
2022/11/21 02:16:14;;;;;;;49.63;25.67;;;6.00;99.90;;;;;;5115144;28;20492;-62
2022/11/21 02:18:40;;;;;;;47.63;25.65;;;6.10;99.90;;;;;;5115178;28;20028;-62
2022/11/21 02:21:28;;;;;;;47.65;24.73;;;6.00;99.90;;;;;;5115198;28;20027;-62
2022/11/21 02:24:07;;;;;;;49.25;25.20;;;6.00;99.90;;;;;;5115019;28;20088;-62
2022/11/21 02:26:34;;;;;;;47.03;25.13;;;6.10;99.90;;;;;;5114972;28;20031;-62
2022/11/21 02:29:00;;;;;;;51.72;26.55;;;6.00;99.90;;;;;;5114833;27;20043;-62
2022/11/21 02:31:26;;;;;;;52.50;26.63;;;6.00;99.90;;;;;;5114720;28;20096;-62
2022/11/21 02:33:52;;;;;;;46.95;25.70;;;6.00;99.90;;;;;;5115065;28;20055;-62
2022/11/21 02:36:47;;;;;;;46.83;26.15;;;6.00;99.90;;;;;;5114731;28;20613;-62
2022/11/21 02:39:26;;;;;;;47.20;26.08;;;6.20;99.90;;;;;;5097604;28;20495;-62
2022/11/21 02:42:27;;;;;;;45.70;25.85;;;6.20;99.90;;;;;;5114890;28;20106;-63
2022/11/21 02:45:04;;;;;;;43.97;24.08;;;6.20;99.90;;;;;;5088833;28;20126;-62
2022/11/21 02:47:31;;;;;;;44.50;24.27;;;6.10;99.90;;;;;;5114819;28;20028;-62
2022/11/21 02:50:18;;;;;;;42.10;24.67;;;6.00;99.90;;;;;;5114811;28;20028;-62
2022/11/21 02:52:43;;;;;;;46.92;24.10;;;6.00;99.90;;;;;;5114916;28;20357;-63
2022/11/21 02:55:14;;;;;;;39.75;21.95;;;6.00;99.90;;;;;;5114672;28;20024;-62
2022/11/21 02:57:40;;;;;;;42.47;24.52;;;6.00;99.90;;;;;;5114773;28;20036;-62
2022/11/21 03:00:08;;;;;;;44.67;24.13;;;6.00;99.90;;;;;;5114796;28;20032;-62
2022/11/21 03:02:34;;;;;;;45.50;24.63;;;6.10;99.90;;;;;;5114836;28;20093;-62
2022/11/21 03:05:01;;;;;;;43.40;23.95;;;6.00;99.90;;;;;;5114753;28;20023;-62
2022/11/21 03:07:27;;;;;;;38.10;22.83;;;6.00;99.90;;;;;;5114588;28;20481;-62
2022/11/21 03:09:53;;;;;;;46.67;24.63;;;6.00;99.90;;;;;;5114625;28;20030;-62
2022/11/21 03:12:18;;;;;;;44.85;24.83;;;6.00;99.90;;;;;;5114549;28;20024;-62
2022/11/21 03:14:44;;;;;;;47.40;25.05;;;6.00;99.90;;;;;;5114613;28;20044;-63
2022/11/21 03:17:10;;;;;;;50.08;27.48;;;6.00;99.90;;;;;;5114585;28;20433;-62
2022/11/21 03:19:36;;;;;;;48.47;27.70;;;6.10;99.90;;;;;;5113315;28;20114;-62
2022/11/21 03:22:03;;;;;;;48.25;27.38;;;6.00;99.90;;;;;;5114638;28;20055;-62
2022/11/21 03:24:28;;;;;;;53.25;26.73;;;6.00;99.90;;;;;;5114494;28;20038;-62
2022/11/21 03:26:54;;;;;;;52.95;29.05;;;6.00;99.90;;;;;;5114392;28;20028;-62
2022/11/21 03:29:20;;;;;;;51.88;28.52;;;6.00;99.90;;;;;;5114576;28;20063;-62
2022/11/21 03:31:46;;;;;;;52.53;27.98;;;6.00;99.90;;;;;;5114275;28;20020;-62
2022/11/21 03:34:12;;;;;;;51.30;26.80;;;6.00;99.90;;;;;;5114482;28;20036;-62
2022/11/21 03:36:38;;;;;;;53.15;28.92;;;6.00;99.90;;;;;;5114407;28;20053;-62
2022/11/21 03:39:04;;;;;;;54.42;29.67;;;6.00;99.90;;;;;;5114349;28;20063;-62
2022/11/21 03:41:30;;;;;;;54.28;28.67;;;6.00;99.90;;;;;;5114755;28;20155;-62
2022/11/21 03:44:01;;;;;;;54.22;29.35;;;6.00;99.90;;;;;;5118137;28;20052;-62
2022/11/21 03:46:29;;;;;;;50.65;28.00;;;6.00;99.90;;;;;;5117928;28;20034;-62
2022/11/21 03:48:56;;;;;;;49.55;28.67;;;6.00;99.90;;;;;;5117976;28;20031;-62
2022/11/21 03:51:22;;;;;;;49.63;28.92;;;6.00;99.90;;;;;;5118131;28;20496;-62
2022/11/21 03:53:48;;;;;;;49.28;27.35;;;6.10;99.90;;;;;;5118112;28;20373;-62
2022/11/21 03:56:15;;;;;;;48.65;27.38;;;6.10;99.90;;;;;;5117906;28;20118;-62
2022/11/21 03:58:41;;;;;;;53.95;27.75;;;6.10;99.90;;;;;;5117811;28;20035;-62
2022/11/21 04:01:07;;;;;;;48.95;28.50;;;6.00;99.90;;;;;;5117785;28;20385;-62
2022/11/21 04:03:33;;;;;;;49.80;26.88;;;6.00;99.90;;;;;;5117759;28;20024;-62
2022/11/21 04:05:59;;;;;;;51.28;28.60;;;6.10;99.90;;;;;;5117593;28;20027;-62
2022/11/21 04:08:26;;;;;;;52.10;28.65;;;6.10;99.90;;;;;;5117626;28;20107;-62
2022/11/21 04:10:53;;;;;;;53.08;29.30;;;6.10;99.90;;;;;;5117585;28;20024;-62
2022/11/21 04:13:19;;;;;;;55.25;30.30;;;6.10;99.90;;;;;;5117756;28;20028;-63
2022/11/21 04:15:46;;;;;;;54.72;29.45;;;6.10;99.90;;;;;;5117301;28;20047;-62
2022/11/21 04:18:12;;;;;;;50.95;29.40;;;6.10;99.90;;;;;;5117529;28;20024;-62
2022/11/21 04:20:38;;;;;;;54.78;29.60;;;6.10;99.90;;;;;;5117328;28;20099;-62
2022/11/21 04:23:05;;;;;;;53.63;29.75;;;6.10;99.90;;;;;;5117339;28;20028;-62
2022/11/21 04:25:32;;;;;;;48.63;26.63;;;6.10;99.90;;;;;;5117307;28;20027;-62
2022/11/21 04:27:59;;;;;;;50.25;27.10;;;6.10;99.90;;;;;;5117237;28;20031;-62
2022/11/21 04:30:25;;;;;;;47.17;27.70;;;6.10;99.90;;;;;;5117229;28;20043;-62
2022/11/21 04:32:52;;;;;;;47.63;27.42;;;6.20;99.90;;;;;;5115896;28;20028;-62
2022/11/21 04:35:18;;;;;;;49.03;27.20;;;6.10;99.90;;;;;;5117038;28;20035;-62
2022/11/21 04:37:44;;;;;;;47.72;27.02;;;6.10;99.90;;;;;;5115890;28;20036;-62
2022/11/21 04:40:11;;;;;;;48.10;28.08;;;6.10;99.90;;;;;;5117064;28;20392;-62
2022/11/21 04:42:41;;;;;;;47.83;27.45;;;6.00;99.90;;;;;;5117027;28;20035;-62
2022/11/21 04:45:07;;;;;;;52.90;29.75;;;6.00;99.90;;;;;;5116901;28;20038;-62
2022/11/21 04:47:37;;;;;;;46.15;26.23;;;6.00;99.90;;;;;;5116663;28;20023;-62
2022/11/21 04:50:04;;;;;;;48.97;26.77;;;6.10;99.90;;;;;;5116781;28;20358;-62
2022/11/21 04:52:30;;;;;;;43.08;26.55;;;6.10;99.90;;;;;;5116382;28;20022;-62
2022/11/21 04:54:56;;;;;;;48.00;25.55;;;6.20;99.90;;;;;;5116746;28;20035;-62
2022/11/21 04:57:22;;;;;;;44.25;26.15;;;6.10;99.90;;;;;;5116531;28;20077;-62
2022/11/21 04:59:48;;;;;;;47.08;27.55;;;6.10;99.90;;;;;;5116542;28;20114;-62
2022/11/21 05:02:14;;;;;;;47.40;27.00;;;6.00;99.90;;;;;;5115137;28;20456;-62
2022/11/21 05:04:40;;;;;;;49.10;28.15;;;6.00;99.90;;;;;;5116305;28;20028;-62
2022/11/21 05:07:06;;;;;;;44.53;25.77;;;5.90;99.90;;;;;;5116463;28;20509;-62
2022/11/21 05:09:32;;;;;;;47.97;26.67;;;5.90;99.90;;;;;;5116399;28;20031;-62
2022/11/21 05:14:42;;;;;;;48.03;27.98;;;5.90;99.90;;;;;;5116091;28;20046;-62
2022/11/21 05:17:08;;;;;;;48.80;26.15;;;6.10;99.90;;;;;;5116344;28;20028;-62
2022/11/21 05:19:33;;;;;;;47.33;27.55;;;6.10;99.90;;;;;;5116148;28;20051;-62
2022/11/21 05:21:59;;;;;;;53.92;29.95;;;6.00;99.90;;;;;;5116284;28;20035;-62
2022/11/21 05:24:25;;;;;;;52.50;29.88;;;6.00;99.90;;;;;;5116036;28;20034;-63
2022/11/21 05:26:52;;;;;;;51.75;28.80;;;6.10;99.90;;;;;;5115801;28;20063;-62
2022/11/21 05:29:18;;;;;;;45.00;26.83;;;6.10;99.90;;;;;;5115916;28;20526;-62
2022/11/21 05:31:44;;;;;;;54.65;30.38;;;6.00;99.90;;;;;;5115903;28;20027;-62
2022/11/21 05:34:10;;;;;;;52.10;30.10;;;6.00;99.90;;;;;;5115821;28;20031;-62
2022/11/21 05:36:36;;;;;;;61.03;33.22;;;5.90;99.90;;;;;;5115865;28;20060;-62
2022/11/21 05:39:02;;;;;;;62.13;37.08;;;5.90;99.90;;;;;;5115795;28;20032;-62
2022/11/21 05:41:28;;;;;;;79.95;42.72;;;5.90;99.90;;;;;;5115801;28;20031;-62
2022/11/21 05:43:54;;;;;;;62.65;36.28;;;5.70;99.90;;;;;;5115533;28;20058;-62
2022/11/21 05:46:22;;;;;;;49.38;30.75;;;5.70;99.90;;;;;;5115600;28;20063;-62
2022/11/21 05:48:49;;;;;;;64.22;36.83;;;5.80;99.90;;;;;;5115328;28;20027;-62
2022/11/21 05:51:16;;;;;;;61.58;37.53;;;5.70;99.90;;;;;;5115626;28;20035;-62
2022/11/21 05:53:43;;;;;;;59.67;34.20;;;5.80;99.90;;;;;;5115447;28;20026;-62
2022/11/21 05:56:11;;;;;;;49.63;28.13;;;5.80;99.90;;;;;;5115531;28;20035;-62
2022/11/21 05:58:37;;;;;;;56.00;32.00;;;5.80;99.90;;;;;;5115549;28;20027;-62
2022/11/21 06:01:05;;;;;;;66.78;36.08;;;5.90;99.90;;;;;;5115592;28;20103;-62
2022/11/21 06:03:34;;;;;;;63.72;36.17;;;6.00;99.90;;;;;;5115418;28;20020;-62
2022/11/21 06:06:09;;;;;;;57.45;29.95;;;5.90;99.90;;;;;;5114577;28;20043;-62
2022/11/21 06:08:45;;;;;;;51.15;29.50;;;6.00;99.90;;;;;;5115329;28;20031;-62
2022/11/21 06:11:13;;;;;;;52.28;28.17;;;6.00;99.90;;;;;;5094743;28;20405;-62
2022/11/21 06:13:40;;;;;;;52.13;29.25;;;6.00;99.90;;;;;;5094898;28;20020;-62
2022/11/21 06:16:13;;;;;;;67.38;40.05;;;6.10;99.90;;;;;;5094666;28;20132;-62
2022/11/21 06:18:42;;;;;;;66.72;37.30;;;6.10;99.90;;;;;;5094777;28;20082;-62
2022/11/21 06:21:13;;;;;;;74.13;41.50;;;6.10;99.90;;;;;;5094874;28;20488;-62
2022/11/21 06:23:39;;;;;;;92.80;53.42;;;6.10;99.90;;;;;;5094566;28;20040;-62
2022/11/21 06:26:07;;;;;;;100.65;58.08;;;6.00;99.90;;;;;;5094649;28;20027;-62
2022/11/21 06:28:35;;;;;;;107.50;61.55;;;6.10;99.90;;;;;;5094470;28;20024;-62
2022/11/21 06:31:10;;;;;;;107.03;62.00;;;6.10;99.90;;;;;;5094481;28;20365;-62
2022/11/21 06:33:36;;;;;;;93.57;51.65;;;6.10;99.90;;;;;;5094496;28;20458;-62
2022/11/21 06:36:10;;;;;;;92.85;49.05;;;6.10;99.90;;;;;;5092496;28;20107;-62
2022/11/21 06:38:37;;;;;;;144.55;66.20;;;6.00;99.90;;;;;;5106535;28;20023;-62
2022/11/21 06:41:09;;;;;;;145.32;66.50;;;6.20;99.90;;;;;;5114683;28;20024;-62
2022/11/21 06:43:35;;;;;;;131.63;64.60;;;6.30;99.90;;;;;;5110037;28;20072;-62
2022/11/21 06:46:04;;;;;;;118.63;60.65;;;6.40;99.90;;;;;;5113847;28;20362;-62
2022/11/21 06:48:31;;;;;;;79.82;41.65;;;6.30;99.90;;;;;;5111489;28;20111;-62
2022/11/21 06:50:57;;;;;;;93.22;47.75;;;6.40;99.90;;;;;;5114075;28;20016;-62
2022/11/21 06:53:23;;;;;;;72.15;37.92;;;6.50;99.90;;;;;;5111430;28;20039;-62
2022/11/21 06:55:49;;;;;;;80.95;43.17;;;6.50;99.90;;;;;;5111030;28;20019;-62
2022/11/21 06:58:15;;;;;;;64.18;33.55;;;6.60;99.90;;;;;;5113946;28;20023;-62
2022/11/21 07:00:41;;;;;;;57.90;32.10;;;6.60;99.90;;;;;;5108374;28;20042;-62
2022/11/21 07:03:07;;;;;;;55.05;33.22;;;6.60;99.90;;;;;;5112583;28;20035;-62
2022/11/21 07:05:33;;;;;;;46.78;27.75;;;6.60;99.90;;;;;;5113026;28;20145;-62
2022/11/21 07:08:00;;;;;;;76.40;40.33;;;6.70;99.90;;;;;;5114729;28;20038;-62
2022/11/21 07:10:26;;;;;;;61.88;34.92;;;6.90;99.90;;;;;;5115254;28;20024;-62
2022/11/21 07:15:45;;;;;;;45.53;27.77;;;6.70;99.90;;;;;;5109338;28;20036;-62
2022/11/21 07:18:14;;;;;;;50.38;29.15;;;6.70;99.90;;;;;;5112776;28;20028;-62
2022/11/21 07:20:43;;;;;;;51.97;30.85;;;6.70;99.90;;;;;;5085378;28;20040;-62
2022/11/21 07:23:09;;;;;;;58.17;32.95;;;6.70;99.90;;;;;;5108549;28;20021;-62
2022/11/21 07:25:38;;;;;;;85.70;37.92;;;6.80;99.90;;;;;;5100235;28;20495;-62
2022/11/21 07:28:06;;;;;;;61.10;35.17;;;6.70;99.90;;;;;;5097541;28;20032;-62
2022/11/21 07:30:33;;;;;;;66.70;36.28;;;6.70;99.90;;;;;;5112959;28;20469;-63
2022/11/21 07:33:01;;;;;;;76.60;39.88;;;6.80;99.90;;;;;;5117914;28;20168;-63
2022/11/21 07:35:28;;;;;;;74.18;40.17;;;6.80;99.90;;;;;;5115412;28;20117;-63
2022/11/21 07:37:54;;;;;;;81.68;43.50;;;6.90;99.90;;;;;;5118017;28;20087;-63
2022/11/21 07:40:20;;;;;;;75.38;41.78;;;7.00;99.90;;;;;;5117893;28;20537;-63
2022/11/21 07:42:46;;;;;;;79.80;41.47;;;7.00;99.90;;;;;;5117622;28;20030;-63
2022/11/21 07:45:13;;;;;;;68.15;39.20;;;7.00;99.90;;;;;;5115281;28;20024;-63
2022/11/21 07:47:39;;;;;;;76.75;41.17;;;7.10;99.90;;;;;;5113715;28;20016;-63
2022/11/21 07:50:06;;;;;;;69.60;40.13;;;7.10;99.90;;;;;;5112752;28;20047;-63
2022/11/21 07:52:32;;;;;;;80.45;42.72;;;6.80;99.90;;;;;;5116312;28;20028;-63
2022/11/21 07:55:02;;;;;;;99.78;50.40;;;6.90;99.90;;;;;;5110495;28;20023;-63
2022/11/21 07:57:32;;;;;;;177.98;71.78;;;7.00;99.90;;;;;;5116878;28;20052;-63
2022/11/21 07:59:58;;;;;;;167.48;70.43;;;7.10;99.90;;;;;;5115844;28;20032;-63
2022/11/21 08:02:31;;;;;;;236.20;84.22;;;7.20;99.90;;;;;;5115418;28;20114;-63
2022/11/21 08:05:00;;;;;;;261.10;87.32;;;7.20;99.90;;;;;;5117277;28;20032;-63
2022/11/21 08:07:26;;;;;;;298.83;97.38;;;7.30;99.90;;;;;;5117039;28;20035;-63
2022/11/21 08:09:52;;;;;;;297.23;104.53;;;7.40;99.90;;;;;;5113323;28;20023;-63
2022/11/21 08:12:17;;;;;;;295.77;96.55;;;7.30;99.90;;;;;;5106754;28;20028;-63
2022/11/21 08:14:44;;;;;;;307.35;94.85;;;7.20;99.90;;;;;;5097264;28;20101;-63
2022/11/21 08:17:09;;;;;;;285.38;93.85;;;7.20;99.90;;;;;;5101834;28;20206;-63
2022/11/21 08:19:35;;;;;;;288.20;90.85;;;7.30;99.90;;;;;;5108530;28;20032;-63
2022/11/21 08:22:01;;;;;;;275.15;86.90;;;7.30;99.90;;;;;;5106936;28;20020;-64
2022/11/21 08:24:27;;;;;;;289.27;90.15;;;7.40;99.90;;;;;;5105978;28;20374;-63
2022/11/21 08:26:53;;;;;;;286.35;91.28;;;7.30;99.90;;;;;;5098087;28;20085;-63
2022/11/21 08:29:19;;;;;;;264.10;83.80;;;7.20;99.90;;;;;;5112551;28;20429;-63
2022/11/21 08:31:45;;;;;;;263.02;81.88;;;7.30;99.90;;;;;;5112694;28;20024;-63
2022/11/21 08:34:11;;;;;;;236.57;70.97;;;7.30;99.90;;;;;;5113980;28;20065;-63
2022/11/21 08:36:38;;;;;;;210.20;66.60;;;7.40;99.90;;;;;;5117102;28;20043;-63
2022/11/21 08:39:07;;;;;;;224.05;66.85;;;7.50;99.90;;;;;;5114291;28;20028;-63
2022/11/21 08:44:20;;;;;;;283.55;81.03;;;7.50;99.90;;;;;;5115283;28;20027;-63
2022/11/21 08:46:46;;;;;;;251.05;72.78;;;7.50;99.90;;;;;;5098841;28;20028;-63
2022/11/21 08:49:11;;;;;;;256.33;74.20;;;7.60;99.90;;;;;;5095772;28;20055;-63
2022/11/21 08:51:37;;;;;;;289.55;85.80;;;7.60;99.90;;;;;;5108487;28;20020;-63
2022/11/21 08:54:03;;;;;;;251.90;79.78;;;7.70;99.90;;;;;;5115608;28;20106;-63
2022/11/21 08:56:29;;;;;;;260.33;79.05;;;7.80;99.90;;;;;;5114648;28;20036;-63
2022/11/21 08:58:55;;;;;;;262.98;82.43;;;7.80;99.90;;;;;;5116166;28;20030;-63
2022/11/21 09:01:21;;;;;;;267.77;80.57;;;7.90;99.90;;;;;;5114730;28;20035;-64
2022/11/21 09:03:47;;;;;;;232.88;73.93;;;8.00;99.90;;;;;;5110141;28;20028;-63
2022/11/21 09:06:13;;;;;;;231.68;74.80;;;8.00;99.90;;;;;;5109608;28;20035;-63
2022/11/21 09:08:40;;;;;;;240.88;77.10;;;8.10;99.90;;;;;;5109864;28;20024;-64
2022/11/21 09:11:08;;;;;;;224.40;72.13;;;8.10;99.90;;;;;;5115908;28;20358;-63
2022/11/21 09:13:34;;;;;;;215.32;72.57;;;8.10;99.90;;;;;;5115402;28;20496;-64
2022/11/21 09:18:45;;;;;;;149.60;56.40;;;8.00;99.90;;;;;;5113904;28;20431;-63
2022/11/21 09:21:15;;;;;;;134.52;49.88;;;8.10;99.90;;;;;;5113164;28;20016;-63
2022/11/21 09:23:41;;;;;;;77.50;35.42;;;8.10;99.90;;;;;;5111244;28;20092;-63
2022/11/21 09:26:08;;;;;;;57.97;29.85;;;8.00;99.90;;;;;;5116309;28;20027;-63
2022/11/21 09:28:37;;;;;;;66.65;31.88;;;7.90;99.90;;;;;;5116250;27;20011;-64
2022/11/21 09:31:04;;;;;;;74.30;34.80;;;8.00;99.90;;;;;;5115855;28;20027;-63
2022/11/21 09:33:30;;;;;;;68.10;32.38;;;8.00;99.90;;;;;;5115578;28;20035;-64
2022/11/21 09:35:59;;;;;;;40.05;22.15;;;7.90;99.90;;;;;;5107112;28;20027;-63
2022/11/21 09:38:28;;;;;;;46.13;22.35;;;8.10;99.90;;;;;;5107886;28;20028;-63
2022/11/21 09:41:51;;;;;;;55.97;29.35;;;8.10;99.90;;;;;;5113439;28;20115;-64
2022/11/21 09:44:42;;;;;;;57.85;27.90;;;8.00;99.90;;;;;;5107617;28;20028;-63
2022/11/21 09:47:27;;;;;;;54.47;27.77;;;8.00;99.90;;;;;;5106959;28;20020;-64
2022/11/21 09:50:02;;;;;;;51.03;28.15;;;8.00;99.90;;;;;;5106310;28;20034;-64
2022/11/21 09:52:55;;;;;;;52.40;26.63;;;8.00;99.90;;;;;;5104875;28;20032;-64
2022/11/21 09:55:32;;;;;;;44.97;23.85;;;8.10;99.90;;;;;;5112503;28;20360;-63
2022/11/21 09:58:01;;;;;;;34.42;20.95;;;8.10;99.90;;;;;;5111854;28;20023;-64
2022/11/21 10:04:26;;;;;;;54.50;27.08;;;8.00;99.90;;;;;;5117667;27;20502;-64
2022/11/21 10:07:22;;;;;;;59.03;31.90;;;8.20;99.90;;;;;;5110052;27;20026;-64
2022/11/21 10:10:16;;;;;;;49.22;25.80;;;8.20;99.90;;;;;;5095656;28;20079;-65
2022/11/21 10:13:13;;;;;;;46.08;24.65;;;8.30;99.90;;;;;;5100230;27;20484;-64
2022/11/21 10:16:08;;;;;;;46.50;25.85;;;8.20;99.90;;;;;;5082743;28;20075;-64
2022/11/21 10:18:52;;;;;;;55.97;28.70;;;8.20;99.90;;;;;;5080122;28;20386;-64
2022/11/21 10:21:58;;;;;;;45.33;26.30;;;8.40;99.90;;;;;;5099952;28;20048;-64
2022/11/21 10:24:30;;;;;;;51.08;26.27;;;8.60;99.90;;;;;;5101594;28;20396;-64
2022/11/21 10:27:05;;;;;;;54.15;26.67;;;8.40;99.90;;;;;;5104080;28;20109;-65
2022/11/21 10:30:02;;;;;;;53.28;30.13;;;8.50;99.90;;;;;;5094150;28;20024;-64
2022/11/21 10:33:02;;;;;;;51.33;24.85;;;8.70;99.90;;;;;;5098971;28;20087;-64
2022/11/21 10:35:47;;;;;;;50.25;25.45;;;8.70;99.90;;;;;;5035627;28;20047;-64
2022/11/21 10:38:21;;;;;;;45.38;22.90;;;8.70;99.90;;;;;;5105406;28;20118;-64
2022/11/21 10:41:08;;;;;;;52.45;25.45;;;8.70;99.90;;;;;;5092558;28;20063;-64
2022/11/21 10:46:34;;;;;;;62.58;28.70;;;8.70;99.90;;;;;;5105747;28;20057;-65
2022/11/21 10:49:02;;;;;;;53.20;26.33;;;8.70;99.90;;;;;;5113775;28;20112;-65
2022/11/21 10:51:59;;;;;;;54.53;26.25;;;8.80;99.90;;;;;;5112609;28;20059;-64
2022/11/21 10:54:31;;;;;;;48.10;24.73;;;8.60;99.90;;;;;;5114967;28;20031;-65
2022/11/21 10:57:11;;;;;;;48.65;24.40;;;8.60;99.90;;;;;;5103436;28;20057;-65
2022/11/21 10:59:37;;;;;;;50.28;25.73;;;8.60;99.90;;;;;;5118055;28;20032;-65
2022/11/21 11:02:12;;;;;;;53.95;28.10;;;8.50;99.90;;;;;;5115517;28;20026;-65
2022/11/21 11:04:38;;;;;;;50.58;24.73;;;8.70;99.90;;;;;;5114748;28;20027;-65
2022/11/21 11:07:23;;;;;;;63.10;29.55;;;8.80;99.90;;;;;;5114476;28;20027;-64
2022/11/21 11:09:51;;;;;;;56.13;29.27;;;8.70;99.90;;;;;;5117559;28;20034;-65
2022/11/21 11:15:23;;;;;;;50.50;27.33;;;8.70;99.90;;;;;;5114565;28;20044;-65
2022/11/21 11:17:58;;;;;;;58.00;28.25;;;8.90;99.90;;;;;;5116499;27;20104;-64
2022/11/21 11:20:39;;;;;;;52.03;27.80;;;9.00;99.90;;;;;;5127305;27;20055;-64
2022/11/21 11:23:24;;;;;;;53.20;26.58;;;8.80;99.90;;;;;;5113084;27;20037;-64
2022/11/21 11:25:59;;;;;;;;;;;8.70;99.90;;;;;;5113266;28;20035;-64
2022/11/21 11:28:32;;;;;;;48.13;24.17;;;8.80;99.90;;;;;;5097471;28;19912;-64
2022/11/21 11:30:59;;;;;;;49.08;24.85;;;8.80;99.90;;;;;;5097488;28;20020;-64
2022/11/21 11:33:35;;;;;;;54.42;25.40;;;8.80;99.90;;;;;;5079238;28;20477;-64
2022/11/21 11:36:38;;;;;;;44.88;23.85;;;8.80;99.90;;;;;;5097936;28;20388;-64
2022/11/21 11:39:16;;;;;;;51.90;25.67;;;8.80;99.90;;;;;;5085069;28;20598;-64
2022/11/21 11:48:08;;;;;;;48.25;21.80;;;8.50;99.90;;;;;;5097353;28;20032;-64
2022/11/21 11:50:45;;;;;;;45.25;22.92;;;8.50;99.90;;;;;;5096980;28;20103;-64
2022/11/21 11:53:21;;;;;;;52.88;25.42;;;8.50;99.90;;;;;;5122101;27;20029;-64
2022/11/21 11:55:59;;;;;;;44.63;22.45;;;8.50;99.90;;;;;;5137913;27;20050;-64
2022/11/21 11:58:40;;;;;;;44.38;20.92;;;8.40;99.90;;;;;;5138116;27;20019;-64
2022/11/21 12:01:17;;;;;;;45.00;21.65;;;8.20;99.90;;;;;;5117975;27;20046;-64
2022/11/21 12:04:09;;;;;;;41.15;20.77;;;8.30;99.90;;;;;;5110397;27;20106;-64
2022/11/21 12:06:47;;;;;;;47.25;21.50;;;8.30;99.90;;;;;;5111142;27;20055;-64
2022/11/21 12:09:23;;;;;;;43.80;20.27;;;8.40;99.90;;;;;;5106657;28;20024;-64
2022/11/21 12:12:08;;;;;;;51.40;28.17;;;8.40;99.90;;;;;;5117573;28;20027;-64
2022/11/21 12:17:35;;;;;;;66.18;32.97;;;8.60;99.90;;;;;;5101282;28;20028;-64
2022/11/21 12:20:14;;;;;;;50.50;27.88;;;8.80;99.90;;;;;;5097725;28;20469;-64
2022/11/21 12:22:40;;;;;;;53.53;28.17;;;8.90;99.90;;;;;;5107374;28;20396;-64
2022/11/21 12:25:13;;;;;;;56.42;30.67;;;9.00;99.90;;;;;;5114750;28;20107;-64
2022/11/21 12:27:44;;;;;;;49.20;25.85;;;9.10;99.90;;;;;;5111776;28;20027;-64
2022/11/21 12:30:18;;;;;;;54.90;29.75;;;9.10;99.90;;;;;;5106175;28;20032;-64
2022/11/21 12:32:57;;;;;;;74.50;37.33;;;9.10;99.90;;;;;;5105094;28;20028;-64
2022/11/21 12:35:29;;;;;;;71.18;35.05;;;9.10;99.90;;;;;;5101973;28;20020;-64
2022/11/21 12:38:14;;;;;;;63.67;32.70;;;9.10;99.90;;;;;;5108859;28;20035;-64
2022/11/21 12:40:58;;;;;;;59.20;32.25;;;9.30;99.90;;;;;;5112365;27;20034;-64
2022/11/21 12:43:53;;;;;;;60.90;32.50;;;9.20;99.90;;;;;;5116438;27;20023;-64
2022/11/21 12:46:46;;;;;;;54.33;29.88;;;8.80;99.90;;;;;;5126422;27;20030;-64
2022/11/21 12:55:19;;;;;;;62.47;34.92;;;9.10;99.90;;;;;;5105134;28;20028;-64
2022/11/21 12:58:14;;;;;;;111.32;61.38;;;9.00;99.90;;;;;;5100086;28;20036;-64
2022/11/21 13:01:21;;;;;;;87.57;51.03;;;9.00;99.90;;;;;;5110023;28;20032;-64
2022/11/21 13:04:16;;;;;;;62.80;36.28;;;8.90;99.90;;;;;;5112538;28;20026;-64
2022/11/21 13:06:46;;;;;;;51.72;30.13;;;8.90;99.90;;;;;;5113386;28;20067;-64
2022/11/21 13:09:15;;;;;;;49.28;27.02;;;8.70;99.90;;;;;;5109567;28;20023;-65
2022/11/21 13:12:06;;;;;;;36.78;21.23;;;8.50;99.90;;;;;;5114767;28;20060;-64
2022/11/21 13:14:42;;;;;;;33.47;19.92;;;8.50;99.90;;;;;;5099975;28;20040;-65
2022/11/21 13:17:29;;;;;;;34.30;21.05;;;8.70;99.90;;;;;;5110967;28;20035;-64
2022/11/21 13:20:15;;;;;;;37.45;21.00;;;8.70;99.90;;;;;;5108068;28;20119;-64
2022/11/21 13:22:44;;;;;;;77.13;46.05;;;8.70;99.90;;;;;;5111044;28;20555;-64
2022/11/21 13:25:30;;;;;;;62.10;38.40;;;8.70;99.90;;;;;;5115859;28;20047;-64
2022/11/21 13:28:18;;;;;;;47.17;28.77;;;8.60;99.90;;;;;;5109821;28;20019;-64
2022/11/21 13:30:50;;;;;;;44.13;26.20;;;8.50;99.90;;;;;;5112378;28;20035;-65